createdAt,value
2019-02-11T00:00:00.757Z,94434.83
2019-02-11T00:01:08.598Z,94451.59
2019-02-11T00:02:13.661Z,94460.70
2019-02-11T00:03:17.144Z,94459.98
2019-02-11T00:04:20.586Z,94463.34
2019-02-11T00:05:24.144Z,94466.70
2019-02-11T00:06:27.596Z,94469.14
2019-02-11T00:07:31.015Z,94479.15
2019-02-11T00:08:34.518Z,94475.24
2019-02-11T00:09:37.951Z,94468.18
2019-02-11T00:10:41.370Z,94478.20
2019-02-11T00:11:44.802Z,94483.61
2019-02-11T00:12:48.220Z,94470.00
2019-02-11T00:13:51.638Z,94464.99
2019-02-11T00:14:55.164Z,94475.42
2019-02-11T00:15:58.619Z,94481.38
2019-02-11T00:17:02.032Z,94473.94
2019-02-11T00:18:05.520Z,94480.45
2019-02-11T00:19:09.100Z,94479.88
2019-02-11T00:20:12.535Z,94486.39
2019-02-11T00:21:16.112Z,94477.81
2019-02-11T00:22:19.542Z,94476.52
2019-02-11T00:23:22.961Z,94478.19
2019-02-11T00:24:26.456Z,94473.14
2019-02-11T00:25:29.895Z,94476.85
2019-02-11T00:26:33.340Z,94458.99
2019-02-11T00:27:36.765Z,94473.70
2019-02-11T00:28:40.265Z,94469.45
2019-02-11T00:29:43.682Z,94451.56
2019-02-11T00:30:47.146Z,94470.00
2019-02-11T00:31:50.574Z,94462.36
2019-02-11T00:32:54.119Z,94459.41
2019-02-11T00:33:57.534Z,94465.51
2019-02-11T00:35:00.960Z,94450.80
2019-02-11T00:36:04.477Z,94468.61
2019-02-11T00:37:07.900Z,94467.15
2019-02-11T00:38:11.391Z,94479.95
2019-02-11T00:39:14.829Z,94474.75
2019-02-11T00:40:18.394Z,94472.52
2019-02-11T00:41:21.986Z,94483.31
2019-02-11T00:42:25.350Z,94473.23
2019-02-11T00:43:28.809Z,94474.58
2019-02-11T00:44:32.232Z,94480.71
2019-02-11T00:45:35.723Z,94481.05
2019-02-11T00:46:39.174Z,94469.33
2019-02-11T00:47:42.646Z,94487.94
2019-02-11T00:48:46.069Z,94492.61
2019-02-11T00:49:49.562Z,94485.17
2019-02-11T00:50:53.062Z,94500.05
2019-02-11T00:51:56.505Z,94488.19
2019-02-11T00:53:00.008Z,94490.63
2019-02-11T00:54:03.432Z,94487.05
2019-02-11T00:55:07.007Z,94494.45
2019-02-11T00:56:10.443Z,94483.70
2019-02-11T00:57:16.963Z,94480.89
2019-02-11T00:58:20.415Z,94490.53
2019-02-11T00:59:23.837Z,94477.85
2019-02-11T01:00:27.334Z,94472.69
2019-02-11T01:01:30.756Z,94487.39
2019-02-11T01:02:34.201Z,94487.19
2019-02-11T01:03:37.720Z,94492.02
2019-02-11T01:04:41.140Z,94472.14
2019-02-11T01:05:44.567Z,94484.42
2019-02-11T01:06:48.015Z,94472.48
2019-02-11T01:07:51.465Z,94478.61
2019-02-11T01:08:54.886Z,94485.66
2019-02-11T01:09:58.312Z,94470.59
2019-02-11T01:11:01.732Z,94478.07
2019-02-11T01:12:05.226Z,94490.13
2019-02-11T01:13:08.668Z,94493.90
2019-02-11T01:14:12.118Z,94489.03
2019-02-11T01:15:15.684Z,94493.16
2019-02-11T01:16:19.105Z,94497.44
2019-02-11T01:17:22.534Z,94501.84
2019-02-11T01:18:25.992Z,94504.06
2019-02-11T01:19:29.500Z,94505.19
2019-02-11T01:20:32.942Z,94505.20
2019-02-11T01:21:36.375Z,94503.51
2019-02-11T01:22:39.886Z,94494.34
2019-02-11T01:23:43.390Z,94494.18
2019-02-11T01:24:46.805Z,94492.13
2019-02-11T01:25:50.292Z,94482.25
2019-02-11T01:26:53.725Z,94494.34
2019-02-11T01:27:57.149Z,94486.38
2019-02-11T01:29:00.584Z,94487.14
2019-02-11T01:30:06.805Z,94479.16
2019-02-11T01:31:10.226Z,94487.08
2019-02-11T01:32:13.646Z,94474.02
2019-02-11T01:33:17.073Z,94487.62
2019-02-11T01:34:20.521Z,94477.38
2019-02-11T01:35:23.965Z,94473.89
2019-02-11T01:36:27.386Z,94475.97
2019-02-11T01:37:30.872Z,94476.93
2019-02-11T01:38:34.299Z,94486.75
2019-02-11T01:39:37.741Z,94481.00
2019-02-11T01:40:41.174Z,94491.84
2019-02-11T01:41:44.664Z,94507.09
2019-02-11T01:42:48.082Z,94497.05
2019-02-11T01:43:51.502Z,94506.49
2019-02-11T01:44:54.947Z,94480.08
2019-02-11T01:45:58.472Z,94508.50
2019-02-11T01:47:01.967Z,94507.53
2019-02-11T01:48:05.382Z,94489.34
2019-02-11T01:49:08.805Z,94497.16
2019-02-11T01:50:13.191Z,94516.70
2019-02-11T01:51:16.627Z,94510.89
2019-02-11T01:52:20.048Z,94497.50
2019-02-11T01:53:23.472Z,94513.33
2019-02-11T01:54:26.965Z,94518.75
2019-02-11T01:55:30.406Z,94529.16
2019-02-11T01:56:33.830Z,94525.69
2019-02-11T01:57:37.351Z,94512.95
2019-02-11T01:58:40.768Z,94513.72
2019-02-11T01:59:44.187Z,94523.79
2019-02-11T02:00:47.710Z,94523.95
2019-02-11T02:01:51.146Z,94519.30
2019-02-11T02:02:54.567Z,94511.48
2019-02-11T02:03:58.000Z,94525.36
2019-02-11T02:05:01.417Z,94519.62
2019-02-11T02:06:04.925Z,94524.44
2019-02-11T02:07:08.480Z,94519.03
2019-02-11T02:08:11.910Z,94522.55
2019-02-11T02:09:15.426Z,94514.20
2019-02-11T02:10:18.938Z,94519.83
2019-02-11T02:11:22.383Z,94509.09
2019-02-11T02:12:25.810Z,94522.66
2019-02-11T02:13:29.235Z,94526.19
2019-02-11T02:14:32.664Z,94495.70
2019-02-11T02:15:36.115Z,94536.44
2019-02-11T02:16:39.605Z,94524.72
2019-02-11T02:17:43.102Z,94529.39
2019-02-11T02:18:46.542Z,94531.95
2019-02-11T02:19:50.112Z,94508.88
2019-02-11T02:20:53.557Z,94547.88
2019-02-11T02:21:57.009Z,94533.78
2019-02-11T02:23:00.438Z,94544.34
2019-02-11T02:24:03.954Z,94543.44
2019-02-11T02:25:09.016Z,94557.44
2019-02-11T02:26:12.467Z,94560.41
2019-02-11T02:27:15.894Z,94562.42
2019-02-11T02:28:19.327Z,94558.57
2019-02-11T02:29:22.751Z,94561.39
2019-02-11T02:30:26.177Z,94554.89
2019-02-11T02:31:29.624Z,94553.41
2019-02-11T02:32:33.046Z,94558.26
2019-02-11T02:33:36.472Z,94558.41
2019-02-11T02:34:39.889Z,94513.22
2019-02-11T02:35:43.337Z,94553.32
2019-02-11T02:36:46.852Z,94544.84
2019-02-11T02:37:50.279Z,94552.94
2019-02-11T02:38:53.704Z,94533.30
2019-02-11T02:39:57.114Z,94561.89
2019-02-11T02:41:00.561Z,94550.27
2019-02-11T02:42:04.074Z,94570.14
2019-02-11T02:43:07.502Z,94569.02
2019-02-11T02:44:10.939Z,94566.27
2019-02-11T02:45:14.419Z,94568.15
2019-02-11T02:46:17.858Z,94566.23
2019-02-11T02:47:21.278Z,94585.25
2019-02-11T02:48:24.753Z,94567.48
2019-02-11T02:49:28.181Z,94582.89
2019-02-11T02:50:31.764Z,94575.47
2019-02-11T02:51:35.204Z,94566.66
2019-02-11T02:52:38.627Z,94583.16
2019-02-11T02:53:42.130Z,94565.48
2019-02-11T02:54:45.543Z,94576.98
2019-02-11T02:55:48.983Z,94582.03
2019-02-11T02:56:52.423Z,94570.32
2019-02-11T02:57:55.868Z,94566.74
2019-02-11T02:58:59.283Z,94567.97
2019-02-11T03:00:02.784Z,94577.52
2019-02-11T03:01:06.229Z,94583.80
2019-02-11T03:02:09.761Z,94576.36
2019-02-11T03:03:13.186Z,94584.56
2019-02-11T03:04:16.609Z,94585.27
2019-02-11T03:05:20.052Z,94583.97
2019-02-11T03:06:23.474Z,94574.98
2019-02-11T03:07:26.908Z,94578.36
2019-02-11T03:08:30.332Z,94581.52
2019-02-11T03:09:33.819Z,94580.03
2019-02-11T03:10:37.239Z,94588.38
2019-02-11T03:11:40.688Z,94572.91
2019-02-11T03:12:44.212Z,94592.41
2019-02-11T03:13:47.662Z,94593.55
2019-02-11T03:14:51.085Z,94593.37
2019-02-11T03:15:54.587Z,94595.91
2019-02-11T03:16:58.029Z,94599.48
2019-02-11T03:18:01.450Z,94599.52
2019-02-11T03:19:04.876Z,94591.79
2019-02-11T03:20:09.345Z,94604.25
2019-02-11T03:21:12.780Z,94593.79
2019-02-11T03:22:16.208Z,94590.57
2019-02-11T03:23:19.627Z,94604.87
2019-02-11T03:24:23.057Z,94602.50
2019-02-11T03:25:26.482Z,94613.27
2019-02-11T03:26:29.916Z,94633.92
2019-02-11T03:27:33.350Z,94623.16
2019-02-11T03:28:36.789Z,94620.94
2019-02-11T03:29:40.216Z,94638.25
2019-02-11T03:30:43.653Z,94639.40
2019-02-11T03:31:47.067Z,94628.27
2019-02-11T03:32:50.505Z,94641.52
2019-02-11T03:33:53.983Z,94644.87
2019-02-11T03:34:57.438Z,94646.34
2019-02-11T03:36:00.856Z,94633.00
2019-02-11T03:37:04.354Z,94648.98
2019-02-11T03:38:07.793Z,94647.51
2019-02-11T03:39:11.230Z,94648.98
2019-02-11T03:40:14.711Z,94643.76
2019-02-11T03:41:18.288Z,94638.47
2019-02-11T03:42:21.742Z,94640.41
2019-02-11T03:43:25.229Z,94650.71
2019-02-11T03:44:28.651Z,94647.81
2019-02-11T03:45:32.070Z,94659.15
2019-02-11T03:46:35.497Z,94658.54
2019-02-11T03:47:38.919Z,94655.94
2019-02-11T03:48:42.362Z,94657.99
2019-02-11T03:49:45.815Z,94658.11
2019-02-11T03:50:49.305Z,94661.77
2019-02-11T03:51:52.744Z,94674.11
2019-02-11T03:52:56.169Z,94672.52
2019-02-11T03:53:59.686Z,94674.52
2019-02-11T03:55:03.257Z,94685.71
2019-02-11T03:56:06.682Z,94681.45
2019-02-11T03:57:10.101Z,94682.21
2019-02-11T03:58:13.592Z,94687.14
2019-02-11T03:59:17.274Z,94688.47
2019-02-11T04:00:20.797Z,94691.38
2019-02-11T04:01:24.216Z,94685.08
2019-02-11T04:02:27.644Z,94687.86
2019-02-11T04:03:31.065Z,94692.22
2019-02-11T04:04:34.595Z,94688.66
2019-02-11T04:05:38.108Z,94693.88
2019-02-11T04:06:41.599Z,94689.95
2019-02-11T04:07:45.087Z,94693.73
2019-02-11T04:08:48.515Z,94701.92
2019-02-11T04:09:51.950Z,94686.42
2019-02-11T04:10:57.613Z,94702.35
2019-02-11T04:12:01.032Z,94697.73
2019-02-11T04:13:04.528Z,94708.91
2019-02-11T04:14:08.027Z,94712.54
2019-02-11T04:15:11.609Z,94722.61
2019-02-11T04:16:15.106Z,94713.95
2019-02-11T04:17:18.525Z,94712.99
2019-02-11T04:18:21.943Z,94711.87
2019-02-11T04:19:25.369Z,94710.99
2019-02-11T04:20:28.816Z,94716.98
2019-02-11T04:21:32.271Z,94717.70
2019-02-11T04:22:35.707Z,94715.95
2019-02-11T04:23:39.133Z,94714.75
2019-02-11T04:24:42.545Z,94712.94
2019-02-11T04:25:45.985Z,94708.79
2019-02-11T04:26:49.405Z,94720.01
2019-02-11T04:27:52.846Z,94706.13
2019-02-11T04:28:56.271Z,94705.19
2019-02-11T04:29:59.701Z,94707.45
2019-02-11T04:31:03.150Z,94696.94
2019-02-11T04:32:06.573Z,94702.23
2019-02-11T04:33:10.001Z,94707.52
2019-02-11T04:34:13.426Z,94705.06
2019-02-11T04:35:16.839Z,94695.25
2019-02-11T04:36:20.289Z,94699.31
2019-02-11T04:37:23.706Z,94701.50
2019-02-11T04:38:27.122Z,94706.01
2019-02-11T04:39:30.543Z,94699.53
2019-02-11T04:40:33.969Z,94703.33
2019-02-11T04:41:37.415Z,94700.07
2019-02-11T04:42:40.908Z,94719.81
2019-02-11T04:43:44.330Z,94716.44
2019-02-11T04:44:47.750Z,94706.47
2019-02-11T04:45:51.173Z,94714.98
2019-02-11T04:46:54.607Z,94715.45
2019-02-11T04:47:58.119Z,94721.63
2019-02-11T04:49:01.541Z,94729.31
2019-02-11T04:50:07.712Z,94724.73
2019-02-11T04:51:11.203Z,94730.11
2019-02-11T04:52:14.640Z,94728.45
2019-02-11T04:53:18.083Z,94732.20
2019-02-11T04:54:21.509Z,94745.12
2019-02-11T04:55:24.932Z,94742.41
2019-02-11T04:56:28.364Z,94737.32
2019-02-11T04:57:31.817Z,94744.02
2019-02-11T04:58:35.244Z,94759.10
2019-02-11T04:59:38.675Z,94749.02
2019-02-11T05:00:42.269Z,94755.55
2019-02-11T05:01:45.696Z,94749.20
2019-02-11T05:02:49.224Z,94753.72
2019-02-11T05:03:54.027Z,94755.85
2019-02-11T05:04:57.565Z,94752.70
2019-02-11T05:06:00.972Z,94753.76
2019-02-11T05:07:04.494Z,94758.95
2019-02-11T05:08:07.982Z,94755.95
2019-02-11T05:09:11.437Z,94767.36
2019-02-11T05:10:16.397Z,94756.61
2019-02-11T05:11:19.833Z,94758.66
2019-02-11T05:12:23.259Z,94768.16
2019-02-11T05:13:26.705Z,94762.81
2019-02-11T05:14:30.122Z,94772.35
2019-02-11T05:15:33.544Z,94767.45
2019-02-11T05:16:36.973Z,94766.40
2019-02-11T05:17:40.398Z,94774.52
2019-02-11T05:18:43.843Z,94770.36
2019-02-11T05:19:47.330Z,94753.76
2019-02-11T05:20:50.763Z,94770.30
2019-02-11T05:21:54.256Z,94771.05
2019-02-11T05:22:57.671Z,94778.41
2019-02-11T05:24:01.285Z,94781.05
2019-02-11T05:25:06.191Z,94787.70
2019-02-11T05:26:09.646Z,94783.91
2019-02-11T05:27:13.037Z,94767.41
2019-02-11T05:28:16.468Z,94793.94
2019-02-11T05:29:19.911Z,94785.81
2019-02-11T05:30:23.336Z,94793.55
2019-02-11T05:31:26.764Z,94802.61
2019-02-11T05:32:30.262Z,94803.94
2019-02-11T05:33:33.693Z,94792.79
2019-02-11T05:34:37.136Z,94784.91
2019-02-11T05:35:40.557Z,94803.54
2019-02-11T05:36:43.981Z,94806.54
2019-02-11T05:37:47.423Z,94815.00
2019-02-11T05:38:50.906Z,94815.46
2019-02-11T05:39:54.353Z,94825.00
2019-02-11T05:40:57.805Z,94812.29
2019-02-11T05:42:01.208Z,94813.80
2019-02-11T05:43:04.767Z,94820.39
2019-02-11T05:44:08.194Z,94821.70
2019-02-11T05:45:11.772Z,94819.48
2019-02-11T05:46:15.251Z,94826.82
2019-02-11T05:47:18.834Z,94817.66
2019-02-11T05:48:22.253Z,94820.49
2019-02-11T05:49:25.670Z,94824.18
2019-02-11T05:50:29.116Z,94825.76
2019-02-11T05:51:32.562Z,94821.46
2019-02-11T05:52:35.984Z,94830.65
2019-02-11T05:53:39.408Z,94807.69
2019-02-11T05:54:42.849Z,94833.48
2019-02-11T05:55:46.291Z,94835.19
2019-02-11T05:56:49.725Z,94838.38
2019-02-11T05:57:53.139Z,94841.98
2019-02-11T05:58:56.589Z,94833.13
2019-02-11T06:00:00.025Z,94835.66
2019-02-11T06:01:03.440Z,94847.35
2019-02-11T06:02:06.924Z,94848.65
2019-02-11T06:03:10.346Z,94850.75
2019-02-11T06:04:13.769Z,94855.45
2019-02-11T06:05:17.259Z,94859.05
2019-02-11T06:06:20.774Z,94853.84
2019-02-11T06:07:24.220Z,94860.31
2019-02-11T06:08:27.655Z,94861.52
2019-02-11T06:09:31.084Z,94862.91
2019-02-11T06:10:34.506Z,94866.27
2019-02-11T06:11:37.949Z,94859.45
2019-02-11T06:12:41.377Z,94853.14
2019-02-11T06:13:44.799Z,94867.78
2019-02-11T06:14:48.297Z,94865.69
2019-02-11T06:15:52.083Z,94865.51
2019-02-11T06:16:55.518Z,94875.22
2019-02-11T06:17:58.936Z,94871.86
2019-02-11T06:19:02.363Z,94875.45
2019-02-11T06:20:08.555Z,94879.44
2019-02-11T06:21:11.988Z,94883.83
2019-02-11T06:22:15.446Z,94882.16
2019-02-11T06:23:18.891Z,94885.66
2019-02-11T06:24:22.333Z,94888.07
2019-02-11T06:25:25.757Z,94894.56
2019-02-11T06:26:29.184Z,94904.27
2019-02-11T06:27:32.653Z,94897.21
2019-02-11T06:28:36.095Z,94903.66
2019-02-11T06:29:39.521Z,94902.98
2019-02-11T06:30:42.962Z,94911.58
2019-02-11T06:31:46.389Z,94904.13
2019-02-11T06:32:49.839Z,94914.03
2019-02-11T06:33:53.274Z,94922.99
2019-02-11T06:34:56.686Z,94916.78
2019-02-11T06:36:00.106Z,94922.86
2019-02-11T06:37:03.569Z,94924.43
2019-02-11T06:38:06.980Z,94926.00
2019-02-11T06:39:10.424Z,94930.00
2019-02-11T06:40:13.921Z,94929.95
2019-02-11T06:41:17.357Z,94934.66
2019-02-11T06:42:20.848Z,94928.88
2019-02-11T06:43:24.287Z,94944.19
2019-02-11T06:44:27.736Z,94923.80
2019-02-11T06:45:31.159Z,94944.38
2019-02-11T06:46:34.585Z,94938.01
2019-02-11T06:47:38.009Z,94938.78
2019-02-11T06:48:41.455Z,94930.22
2019-02-11T06:49:44.894Z,94941.44
2019-02-11T06:50:48.368Z,94934.27
2019-02-11T06:51:51.826Z,94942.52
2019-02-11T06:52:55.255Z,94950.47
2019-02-11T06:53:58.697Z,94951.61
2019-02-11T06:55:02.126Z,94954.34
2019-02-11T06:56:05.618Z,94956.21
2019-02-11T06:57:09.041Z,94966.93
2019-02-11T06:58:12.460Z,94963.98
2019-02-11T06:59:15.912Z,94975.32
2019-02-11T07:00:19.350Z,94985.23
2019-02-11T07:01:22.781Z,94989.82
2019-02-11T07:02:26.205Z,94984.97
2019-02-11T07:03:29.623Z,94992.89
2019-02-11T07:04:33.068Z,95003.88
2019-02-11T07:05:36.584Z,94997.17
2019-02-11T07:06:40.007Z,94988.16
2019-02-11T07:07:43.428Z,95009.30
2019-02-11T07:08:46.856Z,95013.03
2019-02-11T07:09:50.358Z,95018.92
2019-02-11T07:10:55.775Z,95023.27
2019-02-11T07:11:58.934Z,95024.72
2019-02-11T07:13:02.439Z,95026.80
2019-02-11T07:14:05.863Z,95026.61
2019-02-11T07:15:11.955Z,95035.06
2019-02-11T07:16:15.379Z,95034.84
2019-02-11T07:17:18.787Z,95045.10
2019-02-11T07:18:22.245Z,95035.85
2019-02-11T07:19:25.697Z,95041.42
2019-02-11T07:20:29.118Z,95044.20
2019-02-11T07:21:32.565Z,95051.23
2019-02-11T07:22:36.061Z,95052.70
2019-02-11T07:23:39.822Z,95046.52
2019-02-11T07:24:43.273Z,95050.80
2019-02-11T07:25:46.773Z,95055.41
2019-02-11T07:26:50.193Z,95057.95
2019-02-11T07:27:53.622Z,95058.49
2019-02-11T07:28:57.050Z,95071.64
2019-02-11T07:30:00.561Z,95066.38
2019-02-11T07:31:04.073Z,95071.59
2019-02-11T07:32:07.537Z,95075.95
2019-02-11T07:33:10.978Z,95074.25
2019-02-11T07:34:14.395Z,95069.56
2019-02-11T07:35:17.850Z,95074.16
2019-02-11T07:36:21.335Z,95077.23
2019-02-11T07:37:24.758Z,95076.48
2019-02-11T07:38:28.181Z,95073.00
2019-02-11T07:39:31.607Z,95086.14
2019-02-11T07:40:35.060Z,95077.66
2019-02-11T07:41:40.187Z,95079.55
2019-02-11T07:43:02.828Z,95081.19
2019-02-11T07:44:07.958Z,95096.05
2019-02-11T07:45:13.390Z,95094.10
2019-02-11T07:46:18.454Z,95095.84
2019-02-11T07:47:21.884Z,95097.47
2019-02-11T07:48:25.319Z,95103.43
2019-02-11T07:49:28.736Z,95106.15
2019-02-11T07:50:32.180Z,95106.95
2019-02-11T07:51:42.159Z,95107.94
2019-02-11T07:52:40.834Z,95114.98
2019-02-11T07:53:44.262Z,95112.34
2019-02-11T07:54:47.793Z,95111.05
2019-02-11T07:55:51.254Z,95114.17
2019-02-11T07:56:54.697Z,95114.89
2019-02-11T07:57:58.211Z,95120.47
2019-02-11T07:59:01.704Z,95115.70
2019-02-11T08:00:06.862Z,95119.66
2019-02-11T08:01:10.314Z,95124.98
2019-02-11T08:02:13.791Z,95120.89
2019-02-11T08:03:17.209Z,95129.09
2019-02-11T08:04:20.820Z,95117.46
2019-02-11T08:05:24.302Z,95113.22
2019-02-11T08:06:27.747Z,95130.16
2019-02-11T08:07:31.162Z,95125.69
2019-02-11T08:08:34.588Z,95121.67
2019-02-11T08:09:38.042Z,95128.16
2019-02-11T08:10:41.610Z,95131.41
2019-02-11T08:11:45.099Z,95115.06
2019-02-11T08:12:48.554Z,95139.55
2019-02-11T08:13:52.123Z,95135.36
2019-02-11T08:14:55.551Z,95139.55
2019-02-11T08:15:59.006Z,95141.19
2019-02-11T08:17:02.615Z,95137.91
2019-02-11T08:18:06.078Z,95143.20
2019-02-11T08:19:09.504Z,95148.73
2019-02-11T08:20:13.058Z,95146.20
2019-02-11T08:21:16.492Z,95149.27
2019-02-11T08:22:20.084Z,95153.63
2019-02-11T08:23:23.546Z,95159.30
2019-02-11T08:24:26.973Z,95142.78
2019-02-11T08:25:30.478Z,95161.73
2019-02-11T08:26:33.921Z,95163.33
2019-02-11T08:27:37.371Z,95174.00
2019-02-11T08:28:40.852Z,95171.11
2019-02-11T08:29:46.110Z,95167.39
2019-02-11T08:30:49.588Z,95176.53
2019-02-11T08:31:53.027Z,95183.91
2019-02-11T08:32:56.477Z,95180.20
2019-02-11T08:33:59.914Z,95180.25
2019-02-11T08:35:03.700Z,95186.62
2019-02-11T08:36:07.122Z,95195.66
2019-02-11T08:37:10.574Z,95194.23
2019-02-11T08:38:14.024Z,95193.84
2019-02-11T08:39:17.543Z,95197.18
2019-02-11T08:40:20.964Z,95202.08
2019-02-11T08:41:24.487Z,95206.17
2019-02-11T08:42:27.979Z,95210.41
2019-02-11T08:43:31.568Z,95208.65
2019-02-11T08:44:35.171Z,95205.95
2019-02-11T08:45:46.639Z,95213.45
2019-02-11T08:46:43.748Z,95223.00
2019-02-11T08:47:47.240Z,95216.05
2019-02-11T08:48:50.690Z,95219.92
2019-02-11T08:49:54.189Z,95228.01
2019-02-11T08:50:57.839Z,95227.07
2019-02-11T08:52:01.247Z,95232.79
2019-02-11T08:53:04.885Z,95231.78
2019-02-11T08:54:08.405Z,95235.67
2019-02-11T08:55:11.839Z,95232.86
2019-02-11T08:56:15.337Z,95235.28
2019-02-11T08:57:18.771Z,95231.48
2019-02-11T08:58:23.820Z,95242.59
2019-02-11T08:59:27.261Z,95248.36
2019-02-11T09:00:30.771Z,95248.98
2019-02-11T09:01:34.370Z,95247.89
2019-02-11T09:02:37.924Z,95251.31
2019-02-11T09:03:41.357Z,95256.58
2019-02-11T09:04:44.802Z,95258.19
2019-02-11T09:05:48.397Z,95261.08
2019-02-11T09:06:51.955Z,95267.84
2019-02-11T09:07:55.386Z,95276.55
2019-02-11T09:08:58.806Z,95264.32
2019-02-11T09:10:02.339Z,95278.16
2019-02-11T09:11:05.826Z,95278.39
2019-02-11T09:12:09.337Z,95277.70
2019-02-11T09:13:12.924Z,95287.20
2019-02-11T09:14:16.338Z,95291.45
2019-02-11T09:15:19.957Z,95289.92
2019-02-11T09:16:23.411Z,95293.86
2019-02-11T09:17:26.835Z,95295.34
2019-02-11T09:18:30.266Z,95301.03
2019-02-11T09:19:33.777Z,95300.96
2019-02-11T09:20:37.207Z,95299.48
2019-02-11T09:21:40.771Z,95302.91
2019-02-11T09:22:44.267Z,95296.19
2019-02-11T09:23:47.696Z,95306.38
2019-02-11T09:24:51.115Z,95303.48
2019-02-11T09:25:54.560Z,95306.23
2019-02-11T09:26:58.075Z,95298.13
2019-02-11T09:28:01.473Z,95297.14
2019-02-11T09:29:04.901Z,95308.83
2019-02-11T09:30:16.454Z,95309.90
2019-02-11T09:31:19.902Z,95311.66
2019-02-11T09:32:23.330Z,95310.27
2019-02-11T09:33:26.762Z,95314.78
2019-02-11T09:34:30.184Z,95314.52
2019-02-11T09:35:33.684Z,95313.64
2019-02-11T09:36:37.195Z,95317.22
2019-02-11T09:37:40.649Z,95318.91
2019-02-11T09:38:44.085Z,95319.21
2019-02-11T09:39:47.585Z,95320.36
2019-02-11T09:40:51.014Z,95324.70
2019-02-11T09:41:54.515Z,95318.74
2019-02-11T09:42:57.955Z,95319.08
2019-02-11T09:44:01.376Z,95322.13
2019-02-11T09:45:10.854Z,95324.98
2019-02-11T09:46:14.280Z,95326.25
2019-02-11T09:47:17.865Z,95332.03
2019-02-11T09:48:21.432Z,95332.06
2019-02-11T09:49:25.099Z,95327.48
2019-02-11T09:50:34.603Z,95332.20
2019-02-11T09:51:41.259Z,95333.58
2019-02-11T09:52:44.751Z,95337.47
2019-02-11T09:53:48.198Z,95347.44
2019-02-11T09:54:51.620Z,95296.31
2019-02-11T09:55:55.074Z,95341.08
2019-02-11T09:56:58.566Z,95341.37
2019-02-11T09:58:02.086Z,95339.22
2019-02-11T09:59:05.513Z,95344.53
2019-02-11T10:00:09.639Z,95350.00
2019-02-11T10:01:13.127Z,95351.81
2019-02-11T10:02:16.551Z,95352.09
2019-02-11T10:03:20.074Z,95359.28
2019-02-11T10:04:23.709Z,95358.35
2019-02-11T10:05:27.185Z,95365.04
2019-02-11T10:06:30.701Z,95365.59
2019-02-11T10:07:34.186Z,95366.03
2019-02-11T10:08:37.634Z,95374.44
2019-02-11T10:09:41.185Z,95378.62
2019-02-11T10:10:44.620Z,95381.77
2019-02-11T10:11:48.033Z,95381.41
2019-02-11T10:12:51.616Z,95378.38
2019-02-11T10:13:55.064Z,95388.22
2019-02-11T10:14:58.481Z,95385.06
2019-02-11T10:16:01.912Z,95387.66
2019-02-11T10:17:05.682Z,95384.25
2019-02-11T10:18:09.300Z,95396.00
2019-02-11T10:19:12.750Z,95395.46
2019-02-11T10:20:16.664Z,95393.19
2019-02-11T10:21:20.090Z,95400.87
2019-02-11T10:22:23.525Z,95402.39
2019-02-11T10:23:26.949Z,95400.44
2019-02-11T10:24:30.391Z,95404.22
2019-02-11T10:25:33.834Z,95403.88
2019-02-11T10:26:37.336Z,95410.98
2019-02-11T10:27:40.828Z,95410.63
2019-02-11T10:28:44.271Z,95411.78
2019-02-11T10:29:47.710Z,95405.45
2019-02-11T10:30:51.177Z,95416.62
2019-02-11T10:31:54.680Z,95419.87
2019-02-11T10:32:58.156Z,95427.55
2019-02-11T10:34:01.571Z,95423.45
2019-02-11T10:35:06.617Z,95415.95
2019-02-11T10:36:10.104Z,95420.25
2019-02-11T10:37:13.530Z,95424.23
2019-02-11T10:38:16.965Z,95422.37
2019-02-11T10:39:20.386Z,95422.33
2019-02-11T10:40:23.992Z,95427.63
2019-02-11T10:41:27.419Z,95428.26
2019-02-11T10:42:30.838Z,95424.98
2019-02-11T10:43:34.270Z,95429.98
2019-02-11T10:44:37.693Z,95427.16
2019-02-11T10:45:41.150Z,95432.27
2019-02-11T10:46:44.589Z,95445.36
2019-02-11T10:47:48.736Z,95436.16
2019-02-11T10:48:52.232Z,95442.97
2019-02-11T10:49:55.661Z,95441.44
2019-02-11T10:50:59.190Z,95443.08
2019-02-11T10:52:02.891Z,95446.05
2019-02-11T10:53:06.317Z,95447.97
2019-02-11T10:54:09.756Z,95449.27
2019-02-11T10:55:15.420Z,95447.75
2019-02-11T10:56:18.881Z,95456.08
2019-02-11T10:57:22.372Z,95452.74
2019-02-11T10:58:26.063Z,95448.84
2019-02-11T10:59:29.550Z,95446.45
2019-02-11T11:00:33.416Z,95449.45
2019-02-11T11:01:36.869Z,95454.42
2019-02-11T11:02:40.296Z,95456.55
2019-02-11T11:03:43.856Z,95455.26
2019-02-11T11:04:47.298Z,95450.71
2019-02-11T11:05:50.792Z,95450.98
2019-02-11T11:06:54.314Z,95446.64
2019-02-11T11:07:57.750Z,95456.17
2019-02-11T11:09:01.175Z,95460.27
2019-02-11T11:10:07.649Z,95462.01
2019-02-11T11:11:11.159Z,95459.09
2019-02-11T11:12:14.703Z,95460.73
2019-02-11T11:13:18.310Z,95466.48
2019-02-11T11:14:21.772Z,95467.25
2019-02-11T11:15:25.476Z,95473.30
2019-02-11T11:16:29.868Z,95471.89
2019-02-11T11:17:33.441Z,95475.23
2019-02-11T11:18:36.838Z,95478.13
2019-02-11T11:19:40.332Z,95474.23
2019-02-11T11:20:43.850Z,95482.36
2019-02-11T11:21:47.412Z,95486.45
2019-02-11T11:22:50.922Z,95490.06
2019-02-11T11:23:54.340Z,95492.97
2019-02-11T11:24:57.771Z,95480.73
2019-02-11T11:26:01.302Z,95486.25
2019-02-11T11:27:04.715Z,95489.48
2019-02-11T11:28:08.164Z,95495.40
2019-02-11T11:29:11.613Z,95495.63
2019-02-11T11:30:17.259Z,95493.91
2019-02-11T11:31:20.757Z,95494.12
2019-02-11T11:32:24.184Z,95490.86
2019-02-11T11:33:27.704Z,95486.67
2019-02-11T11:34:31.222Z,95499.66
2019-02-11T11:35:34.641Z,95503.47
2019-02-11T11:36:38.139Z,95514.06
2019-02-11T11:37:41.637Z,95513.74
2019-02-11T11:38:45.159Z,95514.30
2019-02-11T11:39:48.651Z,95516.45
2019-02-11T11:40:52.233Z,95514.59
2019-02-11T11:41:55.719Z,95512.86
2019-02-11T11:42:59.153Z,95516.98
2019-02-11T11:44:02.668Z,95510.91
2019-02-11T11:45:09.149Z,95517.42
2019-02-11T11:46:12.575Z,95517.84
2019-02-11T11:47:16.079Z,95521.83
2019-02-11T11:48:19.516Z,95522.48
2019-02-11T11:49:23.104Z,95527.89
2019-02-11T11:50:26.528Z,95530.40
2019-02-11T11:51:29.958Z,95536.33
2019-02-11T11:52:33.387Z,95532.55
2019-02-11T11:53:36.816Z,95539.45
2019-02-11T11:54:40.273Z,95542.04
2019-02-11T11:55:44.058Z,95539.56
2019-02-11T11:56:47.539Z,95544.88
2019-02-11T11:57:51.027Z,95548.77
2019-02-11T11:58:54.448Z,95542.94
2019-02-11T11:59:57.991Z,95534.92
2019-02-11T12:01:01.640Z,95547.26
2019-02-11T12:02:05.202Z,95550.28
2019-02-11T12:03:08.720Z,95545.12
2019-02-11T12:04:12.205Z,95555.27
2019-02-11T12:05:16.601Z,95553.09
2019-02-11T12:06:20.048Z,95548.12
2019-02-11T12:07:23.630Z,95553.97
2019-02-11T12:08:27.059Z,95551.94
2019-02-11T12:09:30.497Z,95556.16
2019-02-11T12:10:34.383Z,95563.48
2019-02-11T12:11:38.053Z,95562.86
2019-02-11T12:12:41.455Z,95567.39
2019-02-11T12:13:44.875Z,95561.12
2019-02-11T12:14:48.303Z,95577.44
2019-02-11T12:15:51.753Z,95583.16
2019-02-11T12:16:59.492Z,95581.66
2019-02-11T12:18:00.536Z,95586.11
2019-02-11T12:19:04.029Z,95576.92
2019-02-11T12:20:12.457Z,95592.36
2019-02-11T12:21:16.046Z,95582.97
2019-02-11T12:22:19.494Z,95586.20
2019-02-11T12:23:22.925Z,95587.94
2019-02-11T12:24:26.385Z,95586.75
2019-02-11T12:25:29.795Z,95589.02
2019-02-11T12:26:33.236Z,95590.95